sensor_id;sensor_type;location;lat;lon;timestamp;P1;durP1;ratioP1;P2;durP2;ratioP2
34828;SDS011;21042;47.620;12.188;2022-07-03T00:00:00;4.35;;;3.25;;
34828;SDS011;21042;47.620;12.188;2022-07-03T00:02:37;4.93;;;3.30;;
34828;SDS011;21042;47.620;12.188;2022-07-03T00:05:04;4.55;;;2.95;;
34828;SDS011;21042;47.620;12.188;2022-07-03T00:07:31;4.88;;;2.72;;
34828;SDS011;21042;47.620;12.188;2022-07-03T00:09:58;5.32;;;3.00;;
34828;SDS011;21042;47.620;12.188;2022-07-03T00:12:24;6.25;;;3.30;;
34828;SDS011;21042;47.620;12.188;2022-07-03T00:14:51;2.63;;;2.40;;
34828;SDS011;21042;47.620;12.188;2022-07-03T00:17:18;7.25;;;2.70;;
34828;SDS011;21042;47.620;12.188;2022-07-03T00:19:45;5.93;;;3.38;;
34828;SDS011;21042;47.620;12.188;2022-07-03T00:22:12;4.88;;;2.83;;
34828;SDS011;21042;47.620;12.188;2022-07-03T00:24:43;5.13;;;3.17;;
34828;SDS011;21042;47.620;12.188;2022-07-03T00:27:19;4.57;;;2.67;;
34828;SDS011;21042;47.620;12.188;2022-07-03T00:29:50;2.95;;;2.33;;
34828;SDS011;21042;47.620;12.188;2022-07-03T00:32:22;5.40;;;2.65;;
34828;SDS011;21042;47.620;12.188;2022-07-03T00:34:50;2.90;;;2.60;;
34828;SDS011;21042;47.620;12.188;2022-07-03T00:37:19;4.57;;;3.95;;
34828;SDS011;21042;47.620;12.188;2022-07-03T00:39:46;6.97;;;2.80;;
34828;SDS011;21042;47.620;12.188;2022-07-03T00:42:14;6.07;;;2.67;;
34828;SDS011;21042;47.620;12.188;2022-07-03T00:44:49;4.05;;;2.60;;
34828;SDS011;21042;47.620;12.188;2022-07-03T00:47:18;4.85;;;2.80;;
34828;SDS011;21042;47.620;12.188;2022-07-03T00:49:47;3.75;;;2.38;;
34828;SDS011;21042;47.620;12.188;2022-07-03T00:52:17;4.03;;;2.47;;
34828;SDS011;21042;47.620;12.188;2022-07-03T00:54:50;3.60;;;2.90;;
34828;SDS011;21042;47.620;12.188;2022-07-03T00:57:22;3.67;;;2.90;;
34828;SDS011;21042;47.620;12.188;2022-07-03T00:59:50;5.80;;;3.17;;
34828;SDS011;21042;47.620;12.188;2022-07-03T01:02:29;6.13;;;3.15;;
34828;SDS011;21042;47.620;12.188;2022-07-03T01:13:01;3.00;;;2.70;;
34828;SDS011;21042;47.620;12.188;2022-07-03T01:15:50;4.10;;;2.97;;
34828;SDS011;21042;47.620;12.188;2022-07-03T01:26:38;3.35;;;2.80;;
34828;SDS011;21042;47.620;12.188;2022-07-03T01:29:08;3.13;;;2.20;;
34828;SDS011;21042;47.620;12.188;2022-07-03T01:31:40;3.00;;;2.70;;
34828;SDS011;21042;47.620;12.188;2022-07-03T01:34:09;5.30;;;2.67;;
34828;SDS011;21042;47.620;12.188;2022-07-03T01:36:40;5.13;;;2.50;;
34828;SDS011;21042;47.620;12.188;2022-07-03T01:39:10;4.75;;;2.45;;
34828;SDS011;21042;47.620;12.188;2022-07-03T01:41:41;5.32;;;2.95;;
34828;SDS011;21042;47.620;12.188;2022-07-03T01:44:11;3.53;;;3.08;;
34828;SDS011;21042;47.620;12.188;2022-07-03T01:46:40;7.00;;;3.63;;
34828;SDS011;21042;47.620;12.188;2022-07-03T01:49:14;6.35;;;2.97;;
34828;SDS011;21042;47.620;12.188;2022-07-03T01:51:42;6.00;;;3.20;;
34828;SDS011;21042;47.620;12.188;2022-07-03T01:54:10;3.88;;;2.88;;
34828;SDS011;21042;47.620;12.188;2022-07-03T01:56:37;5.82;;;2.85;;
34828;SDS011;21042;47.620;12.188;2022-07-03T01:59:04;7.03;;;4.47;;
34828;SDS011;21042;47.620;12.188;2022-07-03T02:01:34;8.85;;;2.78;;
34828;SDS011;21042;47.620;12.188;2022-07-03T02:04:24;5.18;;;3.47;;
34828;SDS011;21042;47.620;12.188;2022-07-03T02:07:01;2.85;;;2.63;;
34828;SDS011;21042;47.620;12.188;2022-07-03T02:12:07;3.80;;;2.70;;
34828;SDS011;21042;47.620;12.188;2022-07-03T02:14:39;6.07;;;3.67;;
34828;SDS011;21042;47.620;12.188;2022-07-03T02:17:18;5.22;;;2.92;;
34828;SDS011;21042;47.620;12.188;2022-07-03T02:22:20;3.20;;;2.90;;
34828;SDS011;21042;47.620;12.188;2022-07-03T02:24:53;5.15;;;3.15;;
34828;SDS011;21042;47.620;12.188;2022-07-03T02:27:28;2.58;;;2.38;;
34828;SDS011;21042;47.620;12.188;2022-07-03T02:30:05;3.38;;;2.67;;
34828;SDS011;21042;47.620;12.188;2022-07-03T02:32:35;3.30;;;2.67;;
34828;SDS011;21042;47.620;12.188;2022-07-03T02:35:09;3.50;;;3.00;;
34828;SDS011;21042;47.620;12.188;2022-07-03T02:40:46;3.40;;;3.05;;
34828;SDS011;21042;47.620;12.188;2022-07-03T02:46:31;5.60;;;3.55;;
34828;SDS011;21042;47.620;12.188;2022-07-03T02:51:54;4.78;;;3.30;;
34828;SDS011;21042;47.620;12.188;2022-07-03T02:54:28;7.43;;;3.47;;
34828;SDS011;21042;47.620;12.188;2022-07-03T02:57:07;6.80;;;3.60;;
34828;SDS011;21042;47.620;12.188;2022-07-03T03:05:02;3.38;;;3.08;;
34828;SDS011;21042;47.620;12.188;2022-07-03T03:07:35;6.72;;;3.45;;
34828;SDS011;21042;47.620;12.188;2022-07-03T03:10:06;6.20;;;3.28;;
34828;SDS011;21042;47.620;12.188;2022-07-03T03:12:36;7.25;;;3.85;;
34828;SDS011;21042;47.620;12.188;2022-07-03T03:15:04;5.97;;;3.28;;
34828;SDS011;21042;47.620;12.188;2022-07-03T03:17:49;4.15;;;3.20;;
34828;SDS011;21042;47.620;12.188;2022-07-03T03:25:34;5.90;;;3.42;;
34828;SDS011;21042;47.620;12.188;2022-07-03T03:28:14;6.30;;;3.90;;
34828;SDS011;21042;47.620;12.188;2022-07-03T03:30:41;5.55;;;3.90;;
34828;SDS011;21042;47.620;12.188;2022-07-03T03:33:08;5.00;;;3.83;;
34828;SDS011;21042;47.620;12.188;2022-07-03T03:35:36;6.18;;;3.58;;
34828;SDS011;21042;47.620;12.188;2022-07-03T03:38:04;6.07;;;3.80;;
34828;SDS011;21042;47.620;12.188;2022-07-03T03:40:32;4.47;;;3.40;;
34828;SDS011;21042;47.620;12.188;2022-07-03T03:43:00;4.18;;;3.53;;
34828;SDS011;21042;47.620;12.188;2022-07-03T03:45:28;5.55;;;3.15;;
34828;SDS011;21042;47.620;12.188;2022-07-03T03:50:22;5.80;;;3.70;;
34828;SDS011;21042;47.620;12.188;2022-07-03T03:52:49;9.70;;;3.80;;
34828;SDS011;21042;47.620;12.188;2022-07-03T03:55:16;13.10;;;4.45;;
34828;SDS011;21042;47.620;12.188;2022-07-03T03:57:43;7.85;;;3.60;;
34828;SDS011;21042;47.620;12.188;2022-07-03T04:00:10;5.00;;;3.55;;
34828;SDS011;21042;47.620;12.188;2022-07-03T04:02:40;4.18;;;2.92;;
34828;SDS011;21042;47.620;12.188;2022-07-03T04:05:07;3.47;;;2.70;;
34828;SDS011;21042;47.620;12.188;2022-07-03T04:07:34;6.60;;;3.10;;
34828;SDS011;21042;47.620;12.188;2022-07-03T04:10:00;4.82;;;3.33;;
34828;SDS011;21042;47.620;12.188;2022-07-03T04:12:28;5.32;;;3.17;;
34828;SDS011;21042;47.620;12.188;2022-07-03T04:14:57;3.00;;;2.70;;
34828;SDS011;21042;47.620;12.188;2022-07-03T04:17:24;4.25;;;3.22;;
34828;SDS011;21042;47.620;12.188;2022-07-03T04:19:51;3.50;;;3.20;;
34828;SDS011;21042;47.620;12.188;2022-07-03T04:22:17;7.50;;;3.20;;
34828;SDS011;21042;47.620;12.188;2022-07-03T04:24:44;5.47;;;3.28;;
34828;SDS011;21042;47.620;12.188;2022-07-03T04:27:11;7.78;;;3.60;;
34828;SDS011;21042;47.620;12.188;2022-07-03T04:29:37;5.15;;;3.35;;
34828;SDS011;21042;47.620;12.188;2022-07-03T04:32:04;4.47;;;3.03;;
34828;SDS011;21042;47.620;12.188;2022-07-03T04:34:31;4.85;;;2.53;;
34828;SDS011;21042;47.620;12.188;2022-07-03T04:36:58;5.03;;;3.08;;
34828;SDS011;21042;47.620;12.188;2022-07-03T04:39:25;5.88;;;3.20;;
34828;SDS011;21042;47.620;12.188;2022-07-03T04:41:51;5.07;;;3.10;;
34828;SDS011;21042;47.620;12.188;2022-07-03T04:44:18;6.55;;;3.35;;
34828;SDS011;21042;47.620;12.188;2022-07-03T04:46:45;5.28;;;3.28;;
34828;SDS011;21042;47.620;12.188;2022-07-03T04:49:12;7.18;;;3.30;;
34828;SDS011;21042;47.620;12.188;2022-07-03T04:51:38;11.40;;;3.42;;
34828;SDS011;21042;47.620;12.188;2022-07-03T04:54:05;3.83;;;3.10;;
34828;SDS011;21042;47.620;12.188;2022-07-03T04:56:32;6.72;;;3.38;;
34828;SDS011;21042;47.620;12.188;2022-07-03T04:58:59;4.10;;;2.72;;
34828;SDS011;21042;47.620;12.188;2022-07-03T05:01:25;3.75;;;2.90;;
34828;SDS011;21042;47.620;12.188;2022-07-03T05:03:52;4.78;;;3.33;;
34828;SDS011;21042;47.620;12.188;2022-07-03T05:06:19;3.50;;;2.40;;
34828;SDS011;21042;47.620;12.188;2022-07-03T05:08:46;7.38;;;2.58;;
34828;SDS011;21042;47.620;12.188;2022-07-03T05:11:13;6.88;;;2.30;;
34828;SDS011;21042;47.620;12.188;2022-07-03T05:13:39;3.85;;;2.38;;
34828;SDS011;21042;47.620;12.188;2022-07-03T05:16:06;3.47;;;2.58;;
34828;SDS011;21042;47.620;12.188;2022-07-03T05:18:33;3.60;;;2.75;;
34828;SDS011;21042;47.620;12.188;2022-07-03T05:21:01;4.88;;;2.50;;
34828;SDS011;21042;47.620;12.188;2022-07-03T05:23:28;4.55;;;2.25;;
34828;SDS011;21042;47.620;12.188;2022-07-03T05:25:55;2.42;;;2.22;;
34828;SDS011;21042;47.620;12.188;2022-07-03T05:28:22;5.03;;;2.33;;
34828;SDS011;21042;47.620;12.188;2022-07-03T05:30:49;12.95;;;2.53;;
34828;SDS011;21042;47.620;12.188;2022-07-03T05:33:15;4.70;;;2.78;;
34828;SDS011;21042;47.620;12.188;2022-07-03T05:35:42;4.03;;;2.50;;
34828;SDS011;21042;47.620;12.188;2022-07-03T05:38:09;4.32;;;3.55;;
34828;SDS011;21042;47.620;12.188;2022-07-03T05:40:36;5.18;;;4.28;;
34828;SDS011;21042;47.620;12.188;2022-07-03T05:43:02;6.68;;;4.03;;
34828;SDS011;21042;47.620;12.188;2022-07-03T05:45:29;6.90;;;4.25;;
34828;SDS011;21042;47.620;12.188;2022-07-03T05:47:56;4.10;;;3.72;;
34828;SDS011;21042;47.620;12.188;2022-07-03T05:50:23;5.93;;;4.40;;
34828;SDS011;21042;47.620;12.188;2022-07-03T05:52:49;11.02;;;4.88;;
34828;SDS011;21042;47.620;12.188;2022-07-03T05:55:16;9.57;;;5.07;;
34828;SDS011;21042;47.620;12.188;2022-07-03T05:57:43;8.95;;;4.65;;
34828;SDS011;21042;47.620;12.188;2022-07-03T06:00:10;6.38;;;4.50;;
34828;SDS011;21042;47.620;12.188;2022-07-03T06:02:37;5.80;;;4.78;;
34828;SDS011;21042;47.620;12.188;2022-07-03T06:05:04;4.70;;;4.20;;
34828;SDS011;21042;47.620;12.188;2022-07-03T06:07:31;9.85;;;4.65;;
34828;SDS011;21042;47.620;12.188;2022-07-03T06:09:57;5.25;;;4.68;;
34828;SDS011;21042;47.620;12.188;2022-07-03T06:12:24;5.25;;;4.50;;
34828;SDS011;21042;47.620;12.188;2022-07-03T06:14:51;7.72;;;4.13;;
34828;SDS011;21042;47.620;12.188;2022-07-03T06:17:18;5.85;;;4.20;;
34828;SDS011;21042;47.620;12.188;2022-07-03T06:19:44;5.30;;;4.28;;
34828;SDS011;21042;47.620;12.188;2022-07-03T06:22:12;5.00;;;4.35;;
34828;SDS011;21042;47.620;12.188;2022-07-03T06:24:38;7.18;;;3.55;;
34828;SDS011;21042;47.620;12.188;2022-07-03T06:27:05;4.53;;;3.83;;
34828;SDS011;21042;47.620;12.188;2022-07-03T06:29:32;7.30;;;3.55;;
34828;SDS011;21042;47.620;12.188;2022-07-03T06:31:59;5.28;;;4.05;;
34828;SDS011;21042;47.620;12.188;2022-07-03T06:36:53;4.65;;;3.20;;
34828;SDS011;21042;47.620;12.188;2022-07-03T06:39:19;5.70;;;3.08;;
34828;SDS011;21042;47.620;12.188;2022-07-03T06:41:46;5.78;;;3.40;;
34828;SDS011;21042;47.620;12.188;2022-07-03T06:44:13;3.20;;;2.88;;
34828;SDS011;21042;47.620;12.188;2022-07-03T06:46:39;3.65;;;3.35;;
34828;SDS011;21042;47.620;12.188;2022-07-03T06:49:06;3.92;;;2.90;;
34828;SDS011;21042;47.620;12.188;2022-07-03T06:51:33;7.90;;;3.47;;
34828;SDS011;21042;47.620;12.188;2022-07-03T06:54:00;4.95;;;3.08;;
34828;SDS011;21042;47.620;12.188;2022-07-03T06:56:27;4.70;;;3.78;;
34828;SDS011;21042;47.620;12.188;2022-07-03T06:58:56;4.78;;;3.50;;
34828;SDS011;21042;47.620;12.188;2022-07-03T07:01:23;4.90;;;3.30;;
34828;SDS011;21042;47.620;12.188;2022-07-03T07:03:50;4.85;;;3.40;;
34828;SDS011;21042;47.620;12.188;2022-07-03T07:06:17;4.45;;;3.70;;
34828;SDS011;21042;47.620;12.188;2022-07-03T07:08:44;3.05;;;2.75;;
34828;SDS011;21042;47.620;12.188;2022-07-03T07:11:10;4.53;;;3.65;;
34828;SDS011;21042;47.620;12.188;2022-07-03T07:13:37;5.47;;;3.45;;
34828;SDS011;21042;47.620;12.188;2022-07-03T07:16:04;3.70;;;3.40;;
34828;SDS011;21042;47.620;12.188;2022-07-03T07:20:58;3.35;;;3.05;;
34828;SDS011;21042;47.620;12.188;2022-07-03T07:23:25;3.88;;;3.33;;
34828;SDS011;21042;47.620;12.188;2022-07-03T07:25:51;3.25;;;2.95;;
34828;SDS011;21042;47.620;12.188;2022-07-03T07:28:18;4.55;;;3.47;;
34828;SDS011;21042;47.620;12.188;2022-07-03T07:30:45;4.82;;;3.08;;
34828;SDS011;21042;47.620;12.188;2022-07-03T07:33:12;6.70;;;3.22;;
34828;SDS011;21042;47.620;12.188;2022-07-03T07:35:39;4.88;;;2.83;;
34828;SDS011;21042;47.620;12.188;2022-07-03T07:38:05;3.38;;;3.08;;
34828;SDS011;21042;47.620;12.188;2022-07-03T07:40:34;6.78;;;3.10;;
34828;SDS011;21042;47.620;12.188;2022-07-03T07:43:01;5.15;;;3.42;;
34828;SDS011;21042;47.620;12.188;2022-07-03T07:47:55;4.72;;;3.05;;
34828;SDS011;21042;47.620;12.188;2022-07-03T07:52:49;3.55;;;2.75;;
34828;SDS011;21042;47.620;12.188;2022-07-03T07:55:16;3.70;;;2.60;;
34828;SDS011;21042;47.620;12.188;2022-07-03T07:57:43;3.10;;;2.80;;
34828;SDS011;21042;47.620;12.188;2022-07-03T08:00:12;5.20;;;3.22;;
34828;SDS011;21042;47.620;12.188;2022-07-03T08:02:41;5.50;;;3.00;;
34828;SDS011;21042;47.620;12.188;2022-07-03T08:05:28;3.40;;;2.42;;
34828;SDS011;21042;47.620;12.188;2022-07-03T08:08:22;3.10;;;2.58;;
34828;SDS011;21042;47.620;12.188;2022-07-03T08:10:49;3.03;;;2.50;;
34828;SDS011;21042;47.620;12.188;2022-07-03T08:13:18;4.47;;;3.05;;
34828;SDS011;21042;47.620;12.188;2022-07-03T08:15:45;3.08;;;2.83;;
34828;SDS011;21042;47.620;12.188;2022-07-03T08:18:15;2.80;;;2.58;;
34828;SDS011;21042;47.620;12.188;2022-07-03T08:20:42;2.88;;;2.67;;
34828;SDS011;21042;47.620;12.188;2022-07-03T08:23:09;3.67;;;2.75;;
34828;SDS011;21042;47.620;12.188;2022-07-03T08:25:36;3.85;;;2.97;;
34828;SDS011;21042;47.620;12.188;2022-07-03T08:28:02;4.28;;;3.22;;
34828;SDS011;21042;47.620;12.188;2022-07-03T08:30:29;6.38;;;3.05;;
34828;SDS011;21042;47.620;12.188;2022-07-03T08:32:57;2.58;;;2.38;;
34828;SDS011;21042;47.620;12.188;2022-07-03T08:35:24;3.10;;;2.80;;
34828;SDS011;21042;47.620;12.188;2022-07-03T08:37:51;7.10;;;2.83;;
34828;SDS011;21042;47.620;12.188;2022-07-03T08:40:19;4.55;;;2.75;;
34828;SDS011;21042;47.620;12.188;2022-07-03T08:42:47;5.68;;;2.80;;
34828;SDS011;21042;47.620;12.188;2022-07-03T08:45:16;3.08;;;2.78;;
34828;SDS011;21042;47.620;12.188;2022-07-03T08:47:44;4.57;;;2.80;;
34828;SDS011;21042;47.620;12.188;2022-07-03T08:50:14;3.15;;;2.85;;
34828;SDS011;21042;47.620;12.188;2022-07-03T08:52:42;2.78;;;2.58;;
34828;SDS011;21042;47.620;12.188;2022-07-03T08:55:10;4.93;;;2.90;;
34828;SDS011;21042;47.620;12.188;2022-07-03T08:57:38;3.95;;;3.05;;
34828;SDS011;21042;47.620;12.188;2022-07-03T09:00:10;3.20;;;2.60;;
34828;SDS011;21042;47.620;12.188;2022-07-03T09:02:39;8.10;;;3.00;;
34828;SDS011;21042;47.620;12.188;2022-07-03T09:05:13;6.00;;;2.80;;
34828;SDS011;21042;47.620;12.188;2022-07-03T09:07:41;6.22;;;2.45;;
34828;SDS011;21042;47.620;12.188;2022-07-03T09:10:13;2.53;;;2.30;;
34828;SDS011;21042;47.620;12.188;2022-07-03T09:12:46;2.80;;;2.60;;
34828;SDS011;21042;47.620;12.188;2022-07-03T09:15:14;3.20;;;2.67;;
34828;SDS011;21042;47.620;12.188;2022-07-03T09:18:01;5.18;;;2.67;;
34828;SDS011;21042;47.620;12.188;2022-07-03T09:20:33;3.22;;;2.65;;
34828;SDS011;21042;47.620;12.188;2022-07-03T09:25:51;3.25;;;2.30;;
34828;SDS011;21042;47.620;12.188;2022-07-03T09:28:23;4.22;;;2.22;;
34828;SDS011;21042;47.620;12.188;2022-07-03T09:31:06;2.70;;;2.40;;
34828;SDS011;21042;47.620;12.188;2022-07-03T09:36:00;3.33;;;2.10;;
34828;SDS011;21042;47.620;12.188;2022-07-03T09:38:27;3.17;;;2.10;;
34828;SDS011;21042;47.620;12.188;2022-07-03T09:40:54;2.92;;;1.90;;
34828;SDS011;21042;47.620;12.188;2022-07-03T09:43:24;2.22;;;2.00;;
34828;SDS011;21042;47.620;12.188;2022-07-03T09:45:58;3.08;;;1.83;;
34828;SDS011;21042;47.620;12.188;2022-07-03T09:48:26;3.92;;;2.33;;
34828;SDS011;21042;47.620;12.188;2022-07-03T09:51:09;4.05;;;2.05;;
34828;SDS011;21042;47.620;12.188;2022-07-03T09:56:24;2.65;;;2.13;;
34828;SDS011;21042;47.620;12.188;2022-07-03T10:01:37;3.88;;;2.42;;
34828;SDS011;21042;47.620;12.188;2022-07-03T10:04:13;4.70;;;2.03;;
34828;SDS011;21042;47.620;12.188;2022-07-03T10:09:20;2.10;;;1.88;;
34828;SDS011;21042;47.620;12.188;2022-07-03T10:11:49;2.25;;;2.05;;
34828;SDS011;21042;47.620;12.188;2022-07-03T10:14:17;3.00;;;1.48;;
34828;SDS011;21042;47.620;12.188;2022-07-03T10:16:46;3.55;;;1.80;;
34828;SDS011;21042;47.620;12.188;2022-07-03T10:19:14;2.75;;;1.55;;
34828;SDS011;21042;47.620;12.188;2022-07-03T10:21:53;4.82;;;1.55;;
34828;SDS011;21042;47.620;12.188;2022-07-03T10:24:23;2.65;;;1.30;;
34828;SDS011;21042;47.620;12.188;2022-07-03T10:26:52;1.38;;;1.25;;
34828;SDS011;21042;47.620;12.188;2022-07-03T10:29:20;1.90;;;1.60;;
34828;SDS011;21042;47.620;12.188;2022-07-03T10:31:54;2.47;;;1.45;;
34828;SDS011;21042;47.620;12.188;2022-07-03T10:34:22;1.98;;;1.40;;
34828;SDS011;21042;47.620;12.188;2022-07-03T10:36:52;2.85;;;1.30;;
34828;SDS011;21042;47.620;12.188;2022-07-03T10:39:25;1.58;;;1.48;;
34828;SDS011;21042;47.620;12.188;2022-07-03T10:42:02;1.40;;;1.30;;
34828;SDS011;21042;47.620;12.188;2022-07-03T10:45:06;1.67;;;1.10;;
34828;SDS011;21042;47.620;12.188;2022-07-03T10:50:09;4.28;;;1.25;;
34828;SDS011;21042;47.620;12.188;2022-07-03T10:52:44;1.27;;;1.10;;
34828;SDS011;21042;47.620;12.188;2022-07-03T10:55:11;1.40;;;1.30;;
34828;SDS011;21042;47.620;12.188;2022-07-03T10:57:40;1.73;;;0.98;;
34828;SDS011;21042;47.620;12.188;2022-07-03T11:00:13;1.60;;;1.50;;
34828;SDS011;21042;47.620;12.188;2022-07-03T11:02:42;1.20;;;1.20;;
34828;SDS011;21042;47.620;12.188;2022-07-03T11:05:16;1.20;;;1.10;;
34828;SDS011;21042;47.620;12.188;2022-07-03T11:15:39;2.15;;;1.35;;
34828;SDS011;21042;47.620;12.188;2022-07-03T11:23:23;2.28;;;1.20;;
34828;SDS011;21042;47.620;12.188;2022-07-03T11:33:43;2.67;;;1.45;;
34828;SDS011;21042;47.620;12.188;2022-07-03T11:41:22;1.67;;;1.30;;
34828;SDS011;21042;47.620;12.188;2022-07-03T11:43:50;1.13;;;1.00;;
34828;SDS011;21042;47.620;12.188;2022-07-03T11:46:25;2.45;;;1.30;;
34828;SDS011;21042;47.620;12.188;2022-07-03T11:51:33;2.85;;;1.10;;
34828;SDS011;21042;47.620;12.188;2022-07-03T11:54:01;1.85;;;1.40;;
34828;SDS011;21042;47.620;12.188;2022-07-03T11:56:28;0.80;;;0.80;;
34828;SDS011;21042;47.620;12.188;2022-07-03T11:58:56;1.67;;;1.00;;
34828;SDS011;21042;47.620;12.188;2022-07-03T12:04:04;3.03;;;1.30;;
34828;SDS011;21042;47.620;12.188;2022-07-03T12:06:53;1.35;;;1.23;;
34828;SDS011;21042;47.620;12.188;2022-07-03T12:09:27;2.28;;;1.00;;
34828;SDS011;21042;47.620;12.188;2022-07-03T12:12:01;3.10;;;1.40;;
34828;SDS011;21042;47.620;12.188;2022-07-03T12:14:35;2.20;;;1.08;;
34828;SDS011;21042;47.620;12.188;2022-07-03T12:17:03;3.53;;;1.20;;
34828;SDS011;21042;47.620;12.188;2022-07-03T12:19:30;1.35;;;1.00;;
34828;SDS011;21042;47.620;12.188;2022-07-03T12:21:57;3.40;;;1.02;;
34828;SDS011;21042;47.620;12.188;2022-07-03T12:24:24;1.85;;;1.08;;
34828;SDS011;21042;47.620;12.188;2022-07-03T12:26:50;1.08;;;0.98;;
34828;SDS011;21042;47.620;12.188;2022-07-03T12:29:17;1.40;;;1.23;;
34828;SDS011;21042;47.620;12.188;2022-07-03T12:31:46;3.53;;;1.10;;
34828;SDS011;21042;47.620;12.188;2022-07-03T12:34:15;3.60;;;1.10;;
34828;SDS011;21042;47.620;12.188;2022-07-03T12:36:56;1.40;;;1.10;;
34828;SDS011;21042;47.620;12.188;2022-07-03T12:39:39;1.15;;;1.05;;
34828;SDS011;21042;47.620;12.188;2022-07-03T12:42:20;3.05;;;1.17;;
34828;SDS011;21042;47.620;12.188;2022-07-03T12:45:01;2.78;;;1.27;;
34828;SDS011;21042;47.620;12.188;2022-07-03T12:47:29;1.45;;;1.10;;
34828;SDS011;21042;47.620;12.188;2022-07-03T12:49:58;1.73;;;1.10;;
34828;SDS011;21042;47.620;12.188;2022-07-03T12:52:27;1.02;;;0.80;;
34828;SDS011;21042;47.620;12.188;2022-07-03T12:54:55;1.30;;;1.20;;
34828;SDS011;21042;47.620;12.188;2022-07-03T12:57:23;3.65;;;1.25;;
34828;SDS011;21042;47.620;12.188;2022-07-03T13:00:12;1.20;;;1.10;;
34828;SDS011;21042;47.620;12.188;2022-07-03T13:02:44;1.17;;;1.08;;
34828;SDS011;21042;47.620;12.188;2022-07-03T13:05:13;2.83;;;1.05;;
34828;SDS011;21042;47.620;12.188;2022-07-03T13:07:47;0.90;;;0.90;;
34828;SDS011;21042;47.620;12.188;2022-07-03T13:10:17;1.08;;;0.98;;
34828;SDS011;21042;47.620;12.188;2022-07-03T13:12:52;2.95;;;0.90;;
34828;SDS011;21042;47.620;12.188;2022-07-03T13:15:23;0.93;;;0.90;;
34828;SDS011;21042;47.620;12.188;2022-07-03T13:20:31;2.35;;;0.98;;
34828;SDS011;21042;47.620;12.188;2022-07-03T13:22:59;1.88;;;1.10;;
34828;SDS011;21042;47.620;12.188;2022-07-03T13:25:28;1.70;;;1.10;;
34828;SDS011;21042;47.620;12.188;2022-07-03T13:28:04;1.00;;;0.90;;
34828;SDS011;21042;47.620;12.188;2022-07-03T13:30:33;3.85;;;1.05;;
34828;SDS011;21042;47.620;12.188;2022-07-03T13:33:00;1.55;;;1.10;;
34828;SDS011;21042;47.620;12.188;2022-07-03T13:35:28;2.55;;;0.95;;
34828;SDS011;21042;47.620;12.188;2022-07-03T13:40:22;2.72;;;1.02;;
34828;SDS011;21042;47.620;12.188;2022-07-03T13:42:49;4.75;;;1.23;;
34828;SDS011;21042;47.620;12.188;2022-07-03T13:47:42;2.45;;;1.02;;
34828;SDS011;21042;47.620;12.188;2022-07-03T13:50:09;1.48;;;1.30;;
34828;SDS011;21042;47.620;12.188;2022-07-03T13:52:36;5.28;;;1.02;;
34828;SDS011;21042;47.620;12.188;2022-07-03T13:55:03;6.13;;;1.20;;
34828;SDS011;21042;47.620;12.188;2022-07-03T13:57:31;2.78;;;1.27;;
34828;SDS011;21042;47.620;12.188;2022-07-03T13:59:59;3.95;;;1.10;;
34828;SDS011;21042;47.620;12.188;2022-07-03T14:02:34;4.00;;;1.20;;
34828;SDS011;21042;47.620;12.188;2022-07-03T14:05:01;2.42;;;0.90;;
34828;SDS011;21042;47.620;12.188;2022-07-03T14:09:55;4.40;;;1.10;;
34828;SDS011;21042;47.620;12.188;2022-07-03T14:12:21;2.70;;;1.05;;
34828;SDS011;21042;47.620;12.188;2022-07-03T14:17:15;3.13;;;0.95;;
34828;SDS011;21042;47.620;12.188;2022-07-03T14:19:41;1.70;;;1.60;;
34828;SDS011;21042;47.620;12.188;2022-07-03T14:22:08;1.55;;;1.30;;
34828;SDS011;21042;47.620;12.188;2022-07-03T14:27:01;1.08;;;1.05;;
34828;SDS011;21042;47.620;12.188;2022-07-03T14:29:47;2.65;;;1.20;;
34828;SDS011;21042;47.620;12.188;2022-07-03T14:32:33;1.85;;;1.40;;
34828;SDS011;21042;47.620;12.188;2022-07-03T14:37:27;3.17;;;1.43;;
34828;SDS011;21042;47.620;12.188;2022-07-03T14:39:54;1.25;;;1.15;;
34828;SDS011;21042;47.620;12.188;2022-07-03T14:42:22;1.20;;;1.10;;
34828;SDS011;21042;47.620;12.188;2022-07-03T14:44:49;1.85;;;1.40;;
34828;SDS011;21042;47.620;12.188;2022-07-03T14:47:15;1.45;;;1.20;;
34828;SDS011;21042;47.620;12.188;2022-07-03T14:49:43;1.08;;;1.00;;
34828;SDS011;21042;47.620;12.188;2022-07-03T14:52:10;1.20;;;1.05;;
34828;SDS011;21042;47.620;12.188;2022-07-03T14:54:37;1.48;;;1.10;;
34828;SDS011;21042;47.620;12.188;2022-07-03T14:57:12;2.47;;;1.20;;
34828;SDS011;21042;47.620;12.188;2022-07-03T14:59:51;2.40;;;1.15;;
34828;SDS011;21042;47.620;12.188;2022-07-03T15:02:41;6.25;;;1.20;;
34828;SDS011;21042;47.620;12.188;2022-07-03T15:05:12;1.33;;;1.02;;
34828;SDS011;21042;47.620;12.188;2022-07-03T15:07:41;2.00;;;1.42;;
34828;SDS011;21042;47.620;12.188;2022-07-03T15:10:26;1.30;;;1.20;;
34828;SDS011;21042;47.620;12.188;2022-07-03T15:12:57;1.45;;;1.20;;
34828;SDS011;21042;47.620;12.188;2022-07-03T15:15:26;1.20;;;1.10;;
34828;SDS011;21042;47.620;12.188;2022-07-03T15:17:56;1.83;;;1.13;;
34828;SDS011;21042;47.620;12.188;2022-07-03T15:20:32;2.83;;;1.10;;
34828;SDS011;21042;47.620;12.188;2022-07-03T15:23:01;1.45;;;1.35;;
34828;SDS011;21042;47.620;12.188;2022-07-03T15:25:30;3.08;;;1.50;;
34828;SDS011;21042;47.620;12.188;2022-07-03T15:27:57;2.15;;;1.33;;
34828;SDS011;21042;47.620;12.188;2022-07-03T15:30:25;1.05;;;0.85;;
34828;SDS011;21042;47.620;12.188;2022-07-03T15:32:52;5.53;;;1.30;;
34828;SDS011;21042;47.620;12.188;2022-07-03T15:35:22;1.75;;;1.20;;
34828;SDS011;21042;47.620;12.188;2022-07-03T15:40:38;3.63;;;1.50;;
34828;SDS011;21042;47.620;12.188;2022-07-03T15:48:58;1.67;;;1.42;;
34828;SDS011;21042;47.620;12.188;2022-07-03T15:57:44;2.30;;;1.60;;
34828;SDS011;21042;47.620;12.188;2022-07-03T16:00:14;1.98;;;1.35;;
34828;SDS011;21042;47.620;12.188;2022-07-03T16:07:38;3.75;;;1.20;;
34828;SDS011;21042;47.620;12.188;2022-07-03T16:10:07;2.35;;;1.20;;
34828;SDS011;21042;47.620;12.188;2022-07-03T16:12:36;1.52;;;1.27;;
34828;SDS011;21042;47.620;12.188;2022-07-03T16:15:05;2.40;;;1.50;;
34828;SDS011;21042;47.620;12.188;2022-07-03T16:17:32;1.55;;;1.45;;
34828;SDS011;21042;47.620;12.188;2022-07-03T16:20:03;3.10;;;1.38;;
34828;SDS011;21042;47.620;12.188;2022-07-03T16:22:36;2.42;;;1.25;;
34828;SDS011;21042;47.620;12.188;2022-07-03T16:25:04;1.63;;;1.50;;
34828;SDS011;21042;47.620;12.188;2022-07-03T16:27:32;1.67;;;1.50;;
34828;SDS011;21042;47.620;12.188;2022-07-03T16:29:59;1.92;;;1.67;;
34828;SDS011;21042;47.620;12.188;2022-07-03T16:32:36;1.73;;;1.48;;
34828;SDS011;21042;47.620;12.188;2022-07-03T16:35:04;1.85;;;1.75;;
34828;SDS011;21042;47.620;12.188;2022-07-03T16:38:02;6.90;;;1.60;;
34828;SDS011;21042;47.620;12.188;2022-07-03T16:40:30;3.10;;;1.98;;
34828;SDS011;21042;47.620;12.188;2022-07-03T16:42:59;3.20;;;1.88;;
34828;SDS011;21042;47.620;12.188;2022-07-03T16:45:32;1.75;;;1.65;;
34828;SDS011;21042;47.620;12.188;2022-07-03T16:48:10;5.13;;;1.98;;
34828;SDS011;21042;47.620;12.188;2022-07-03T16:50:49;2.58;;;1.90;;
34828;SDS011;21042;47.620;12.188;2022-07-03T16:53:21;2.10;;;2.00;;
34828;SDS011;21042;47.620;12.188;2022-07-03T16:55:48;2.40;;;1.92;;
34828;SDS011;21042;47.620;12.188;2022-07-03T16:58:16;4.00;;;2.25;;
34828;SDS011;21042;47.620;12.188;2022-07-03T17:00:44;2.10;;;1.95;;
34828;SDS011;21042;47.620;12.188;2022-07-03T17:03:11;2.97;;;2.03;;
34828;SDS011;21042;47.620;12.188;2022-07-03T17:05:39;4.35;;;1.90;;